Latest Coastal Weather Observations for Esperance

IDW60701

Issued at 1:55 am WST Tuesday 21 October 2014 (issued every 10 minutes, with the page automatically refreshed every 10 minutes)

About coastal observations | Map of coastal stations | Coastal observations for WA | Marine services | Other Formats
Station Details ID: 009789 Name: ESPERANCE Lat: -33.83 Lon: 121.89 Height: 25.0 m
Data from the previous 72 hours. | See also: Recent months at Esperance
Date/Time
WST
Temp

°C
Wind Pressure Rain
since 9am
mm
Weather Cloud Vis
km
Sea
Height
m
Swell
Dir
 
Speed
knots
Gust
knots
hPa Trend Height
m
Period
s
Dir
21/01:47am 15.5 W 7 9 1017.4 - 3.6 - Partly cloudy 7 - - - -
21/01:30am 15.5 WNW 7 10 1017.2 - 3.4 - Partly cloudy 10 - - - -
21/01:00am 15.4 WNW 6 8 1017.1 - 3.4 - Partly cloudy 10 - - - -
21/12:49am 15.4 W 6 10 1017.1 - 3.4 - Partly cloudy 10 - - - -
21/12:30am 15.4 W 7 10 1017.0 - 3.4 - Partly cloudy 10 - - - -
21/12:05am 15.6 W 7 10 1017.0 - 3.2 - Partly cloudy 10 - - - -
21/12:02am 15.5 W 7 11 1016.9 - 3.2 - Partly cloudy 10 - - - -
21/12:00am 15.5 WNW 7 11 1016.9 R 3.2 - Cloudy 10 - - - -
 
Date/Time
WST
Temp

°C
Wind Pressure Rain
since 9am
mm
Weather Cloud Vis
km
Sea
Height
m
Swell
Dir
 
Speed
knots
Gust
knots
hPa Trend Height
m
Period
s
Dir
20/11:51pm 15.6 WNW 9 13 1016.9 - 3.2 - Partly cloudy 10 - - - -
20/11:30pm 15.6 WNW 10 13 1017.0 - 3.2 - Partly cloudy 10 - - - -
20/11:03pm 15.5 WNW 10 13 1016.9 - 3.2 - Partly cloudy 10 - - - -
20/11:00pm 15.5 WNW 11 16 1017.0 - 3.2 - Partly cloudy 10 - - - -
20/10:30pm 15.7 WNW 9 13 1017.1 - 3.2 - Partly cloudy 10 - - - -
20/10:24pm 15.7 WNW 9 14 1017.2 - 3.2 - Partly cloudy 10 - - - -
20/10:20pm 15.8 WNW 10 14 1017.2 - 3.2 - Partly cloudy 10 - - - -
20/10:16pm 15.8 WNW 10 14 1017.1 - 3.2 - Partly cloudy 10 - - - -
20/10:04pm 16.0 W 10 15 1017.2 - 3.2 - Partly cloudy 7 - - - -
20/10:00pm 16.1 W 10 15 1017.3 - 3.0 - Partly cloudy 9 - - - -
20/09:49pm 16.1 WNW 10 15 1017.2 - 3.0 - Partly cloudy 10 - - - -
20/09:36pm 16.0 WNW 9 15 1017.2 - 3.0 - Cloudy 7 - - - -
20/09:30pm 16.1 WNW 10 13 1017.2 - 3.0 - Partly cloudy 10 - - - -
20/09:00pm 16.4 W 11 16 1017.4 R 3.0 Recent precip. Cloudy 10 - - - -
20/08:53pm 16.3 WNW 10 16 1017.5 - 3.0 - Partly cloudy 10 - - - -
20/08:46pm 16.1 WNW 10 15 1017.5 - 3.0 - Partly cloudy 10 - - - -
20/08:32pm 16.1 WNW 9 14 1017.5 - 2.8 - Partly cloudy 7 - - - -
20/08:30pm 16.2 WNW 9 13 1017.4 - 2.6 - Partly cloudy 10 - - - -
20/08:29pm 16.3 WNW 9 13 1017.5 - 2.6 Showers Mostly clear 7 - - - -
20/08:00pm 16.2 WNW 8 11 1016.9 - 2.4 - Mostly clear 10 - - - -
20/07:30pm 16.6 WNW 8 10 1016.4 - 2.4 - Mostly clear 10 - - - -
20/07:00pm 16.7 NW 7 9 1015.7 - 2.4 - Mostly clear 10 - - - -
20/06:30pm 16.9 NW 4 5 1015.4 - 2.4 - Mostly clear 10 - - - -
20/06:00pm 17.1 N 2 5 1015.0 R 2.4 Fine Mostly cloudy 30 - - - -
20/05:30pm 17.8 CALM 0 0 1014.3 - 2.4 - Mostly clear 10 - - - -
20/05:00pm 17.2 ENE 4 5 1013.9 - 2.4 - Partly cloudy 10 - - - -
20/04:30pm 17.1 ESE 6 8 1013.4 - 2.2 - Partly cloudy 10 - - - -
20/04:00pm 17.7 SSE 6 8 1013.2 - 2.2 - Partly cloudy 10 - - - -
20/03:42pm 17.1 W 4 7 1013.2 - 2.0 Showers Mostly clear 4 - - - -
20/03:30pm 18.1 NNW 13 18 1012.9 - 0.6 Showers Partly cloudy 9 - - - -
20/03:00pm 20.7 NW 10 13 1012.5 R 0.2 Distant precip. Mostly cloudy 20 - - - -
20/02:30pm 19.6 NW 15 21 1012.6 - 0.2 - Partly cloudy 10 - - - -
20/02:00pm 20.8 NNW 13 19 1012.4 - 0.2 - Partly cloudy 10 - - - -
20/01:30pm 21.5 NNW 14 21 1012.4 - 0.2 - Partly cloudy 10 - - - -
20/01:00pm 20.4 NW 14 20 1012.6 - 0.2 - Partly cloudy 10 - - - -
20/12:30pm 22.6 NW 13 19 1012.4 - 0.2 - Partly cloudy 10 - - - -
20/12:00pm 21.3 NW 13 19 1012.4 F 0.2 Fine Mostly cloudy 30 - - - -
20/11:30am 20.9 NW 11 19 1012.5 - 0.2 - Partly cloudy 10 - - - -
20/11:00am 21.0 WNW 12 17 1012.6 - 0.2 - Mostly clear 10 - - - -
20/10:30am 21.1 NW 12 17 1012.6 - 0.2 - Mostly clear 10 - - - -
20/10:00am 20.2 NW 13 20 1012.9 - 0.0 - Mostly clear 10 - - - -
20/09:30am 19.4 NW 13 17 1013.0 - 0.0 - Mostly clear 10 - - - -
20/09:00am 19.3 NW 11 15 1013.3 F 42.0 Fine Partly cloudy 30 - - - -
20/08:30am 18.2 NW 11 14 1013.4 - 42.0 - Mostly clear 10 - - - -
20/08:00am 17.0 N 11 16 1013.5 - 42.0 - Mostly clear 10 - - - -
20/07:30am 16.0 N 10 14 1013.5 - 42.0 - Partly cloudy 10 - - - -
20/07:00am 15.0 N 11 16 1013.6 - 42.0 - Partly cloudy 10 - - - -
20/06:47am 14.7 N 9 15 1013.8 - 42.0 - Partly cloudy 10 - - - -
20/06:30am 14.4 N 8 13 1013.6 - 42.0 - Mostly clear 10 - - - -
20/06:00am 13.4 NNE 8 11 1013.4 R 42.0 Fine Mostly clear 30 - - - -
20/05:30am 12.7 NE 6 8 1012.9 - 42.0 - - 10 - - - -
20/05:00am 12.9 N 6 9 1013.1 - 42.0 - - 10 - - - -
20/04:30am 13.1 NNE 7 10 1012.7 - 42.0 - - 10 - - - -
20/04:00am 13.2 N 6 8 1012.4 - 42.0 - Partly cloudy 10 - - - -
20/03:30am 13.4 NNE 7 11 1012.6 - 42.0 - - 10 - - - -
20/03:00am 13.5 NNE 9 13 1012.3 R 42.0 - Mostly clear 10 - - - -
20/02:30am 13.7 NNE 9 11 1012.0 - 42.0 - - 10 - - - -
20/02:00am 13.7 NNE 7 11 1012.1 - 42.0 - - 10 - - - -
20/01:30am 14.2 N 9 13 1012.2 - 42.0 - - 10 - - - -
20/01:00am 14.5 N 10 14 1011.9 - 42.0 - - 10 - - - -
20/12:30am 14.8 N 13 19 1011.9 - 42.0 - - 10 - - - -
20/12:00am 14.9 N 12 17 1011.9 F 42.0 - Mostly cloudy 10 - - - -
 
Date/Time
WST
Temp

°C
Wind Pressure Rain
since 9am
mm
Weather Cloud Vis
km
Sea
Height
m
Swell
Dir
 
Speed
knots
Gust
knots
hPa Trend Height
m
Period
s
Dir
19/11:30pm 14.7 N 11 14 1012.3 - 42.0 - - 10 - - - -
19/11:00pm 14.6 N 9 13 1012.2 - 42.0 - - 10 - - - -
19/10:30pm 14.8 N 7 9 1012.7 - 42.0 - Partly cloudy 10 - - - -
19/10:00pm 14.9 N 8 10 1012.7 - 42.0 - - 10 - - - -
19/09:30pm 14.9 N 7 9 1012.9 - 42.0 - - 10 - - - -
19/09:00pm 14.9 N 5 7 1012.7 F 42.0 - Cloudy 10 - - - -
19/08:30pm 15.1 ENE 8 14 1011.9 - 42.0 - Partly cloudy 10 - - - -
19/08:00pm 15.2 NE 8 11 1012.9 - 42.0 - - 10 - - - -
19/07:43pm 15.3 ENE 7 11 1013.0 - 42.0 - Mostly clear 10 - - - -
19/07:30pm 15.5 E 8 13 1012.5 - 42.0 - Partly cloudy 10 - - - -
19/07:14pm 15.7 ESE 17 28 1011.0 - 42.0 Rain Mostly clear 10 - - - -
19/07:00pm 15.6 SE 19 27 1009.8 - 42.0 - Partly cloudy 6 - - - -
19/06:55pm 15.5 SE 15 27 1009.8 - 42.0 Rain Mostly clear 7 - - - -
19/06:53pm 15.5 SE 12 22 1010.6 - 42.0 Rain Mostly clear 7 - - - -
19/06:52pm 15.5 SE 11 19 1011.1 - 42.0 - Partly cloudy 8 - - - -
19/06:51pm 15.5 SE 10 18 1011.4 - 42.0 Rain Mostly clear 8 - - - -
19/06:30pm 15.3 NNE 5 8 1013.8 - 41.2 Rain Partly cloudy 3 - - - -
19/06:00pm 15.4 N 5 8 1014.6 R 38.2 Rain Cloudy 4 - - - -
19/05:30pm 15.8 NNW 9 13 1014.5 - 34.2 Rain Mostly clear 4 - - - -
19/05:20pm 16.1 NNW 10 13 1014.4 - 32.8 - Partly cloudy 2 - - - -
19/05:00pm 16.0 WNW 8 11 1014.2 - 29.6 - Mostly clear 4 - - - -
19/04:30pm 16.0 N 6 8 1013.5 - 26.0 Rain Mostly clear 4 - - - -
19/04:00pm 16.1 NE 9 13 1012.3 - 23.2 - Mostly clear 5 - - - -
19/03:30pm 16.6 E 12 21 1011.1 - 21.2 Rain Mostly clear 7 - - - -
19/03:22pm 16.7 ENE 14 23 1011.1 - 20.8 Rain Mostly clear 7 - - - -
19/03:00pm 16.6 E 12 22 1010.7 F 20.0 Rain Cloudy 12 - - - -
19/02:30pm 16.6 E 15 25 1010.5 - 19.6 Rain Mostly clear 10 - - - -
19/02:00pm 16.6 E 13 23 1011.1 - 16.8 - Mostly clear 6 - - - -
19/01:30pm 16.7 E 8 14 1012.8 - 14.0 Rain Partly cloudy 5 - - - -
19/01:17pm 16.8 E 7 11 1013.5 - 12.6 Thunderstorm Partly cloudy 4 - - - -
19/01:00pm 16.6 E 5 9 1013.5 - 10.6 - Mostly clear 3 - - - -
19/12:36pm 16.6 E 9 14 1013.5 - 7.6 Rain Partly cloudy 7 - - - -
19/12:30pm 16.6 ESE 10 15 1013.5 - 7.2 Rain Partly cloudy 10 - - - -
19/12:00pm 16.1 ESE 13 19 1013.8 F 7.0 Rain Cloudy 9 - - - -
19/11:30am 15.7 ESE 16 25 1014.4 - 6.2 Showers Partly cloudy 9 - - - -
19/11:06am 15.7 ESE 19 29 1014.7 - 6.0 Showers Partly cloudy 4 - - - -
19/11:00am 15.5 ESE 20 29 1014.6 - 6.0 - Partly cloudy 3 - - - -
19/10:49am 15.4 ESE 21 29 1014.7 - 5.2 Showers Cloudy 3 - - - -
19/10:30am 15.3 ESE 21 33 1014.9 - 4.6 Showers Cloudy 7 - - - -
19/10:02am 15.1 ESE 19 29 1015.4 - 3.4 Showers Cloudy 3 - - - -
19/10:00am 15.1 ESE 20 29 1015.3 - 3.2 - Cloudy 3 - - - -
19/09:30am 14.8 ESE 22 32 1015.8 - 0.8 Showers Mostly cloudy 2 - - - -
19/09:18am 14.7 ESE 20 30 1016.2 - 0.2 Showers Partly cloudy 3 - - - -
19/09:00am 14.6 ESE 19 28 1016.7 F 7.2 Showers Cloudy 3 - - - -
19/08:30am 14.7 ESE 19 31 1017.1 - 7.0 Showers Partly cloudy 3 - - - -
19/08:00am 14.4 ESE 20 30 1017.1 - 6.6 - Partly cloudy 3 - - - -
19/07:48am 14.5 ESE 19 27 1017.1 - 6.6 Showers Partly cloudy 5 - - - -
19/07:30am 14.8 ESE 20 30 1016.8 - 6.6 - Partly cloudy 8 - - - -
19/07:00am 14.5 ESE 22 32 1016.2 - 6.6 - Partly cloudy 7 - - - -
19/06:30am 14.6 ESE 23 33 1016.6 - 6.6 - Partly cloudy 10 - - - -
19/06:17am 14.4 ESE 21 31 1016.3 - 6.6 - Partly cloudy 10 - - - -
19/06:00am 14.2 ESE 23 32 1016.7 F 6.6 Showers Cloudy 7 - - - -
19/05:52am 14.2 ESE 21 32 1016.6 - 6.6 Showers Partly cloudy 7 - - - -
19/05:30am 14.3 ESE 23 34 1016.4 - 6.6 - Partly cloudy 10 - - - -
19/05:25am 14.2 ESE 23 33 1016.2 - 6.6 - Partly cloudy 10 - - - -
19/05:17am 14.1 ESE 21 32 1016.0 - 6.6 - Partly cloudy 8 - - - -
19/05:13am 14.2 ESE 20 28 1016.5 - 6.6 - Partly cloudy 7 - - - -
19/05:00am 14.1 ESE 22 32 1016.5 - 6.6 - Partly cloudy 10 - - - -
19/04:32am 14.4 ESE 20 31 1016.6 - 6.6 - Partly cloudy 10 - - - -
19/04:30am 14.4 ESE 20 29 1016.5 - 6.6 - Partly cloudy 10 - - - -
19/04:00am 14.4 ESE 18 25 1017.9 - 6.6 - Partly cloudy 10 - - - -
19/03:58am 14.4 ESE 19 25 1017.8 - 6.6 - Partly cloudy 10 - - - -
19/03:40am 14.2 ESE 17 25 1017.7 - 6.6 - Partly cloudy 7 - - - -
19/03:30am 14.4 ESE 18 27 1017.5 - 6.6 - Partly cloudy 10 - - - -
19/03:23am 14.3 ESE 17 27 1017.7 - 6.6 - Partly cloudy 10 - - - -
19/03:22am 14.3 ESE 17 25 1017.8 - 6.6 - Partly cloudy 10 - - - -
19/03:20am 14.4 ESE 17 25 1017.9 - 6.6 - Partly cloudy 10 - - - -
19/03:00am 14.3 ESE 18 24 1017.5 F 6.6 - Cloudy 10 - - - -
19/02:30am 14.5 ESE 17 25 1017.0 - 6.6 - Partly cloudy 10 - - - -
19/02:20am 14.5 ESE 17 25 1017.0 - 6.6 - Partly cloudy 10 - - - -
19/02:12am 14.6 ESE 18 28 1017.2 - 6.6 - Partly cloudy 10 - - - -
19/02:08am 14.5 ESE 19 28 1017.0 - 6.6 - Partly cloudy 10 - - - -
19/02:05am 14.6 ESE 18 28 1017.0 - 6.6 - Partly cloudy 10 - - - -
19/02:00am 14.5 SE 17 25 1017.0 - 6.6 - Partly cloudy 9 - - - -
19/01:47am 14.5 SE 17 25 1016.8 - 6.6 - Cloudy 7 - - - -
19/01:30am 15.2 SE 18 26 1017.6 - 6.6 - Cloudy 10 - - - -
19/01:00am 15.3 SE 18 24 1017.9 - 6.6 - Partly cloudy 10 - - - -
19/12:30am 15.2 SE 18 28 1018.3 - 6.6 - Partly cloudy 10 - - - -
19/12:29am 15.2 SE 18 28 1018.2 - 6.6 - Partly cloudy 10 - - - -
19/12:00am 15.3 SE 15 22 1018.3 F 6.6 - Cloudy 10 - - - -
 
Date/Time
WST
Temp

°C
Wind Pressure Rain
since 9am
mm
Weather Cloud Vis
km
Sea
Height
m
Swell
Dir
 
Speed
knots
Gust
knots
hPa Trend Height
m
Period
s
Dir
18/11:30pm 15.4 SE 16 25 1017.9 - 6.6 - Partly cloudy 10 - - - -
18/11:00pm 15.3 SE 17 25 1018.1 - 6.6 - Partly cloudy 10 - - - -
18/10:30pm 15.3 SE 15 21 1018.5 - 6.6 - Partly cloudy 10 - - - -
18/10:00pm 15.2 ESE 14 19 1018.7 - 6.6 - Partly cloudy 10 - - - -
18/09:30pm 15.0 ESE 13 17 1019.0 - 6.6 - Partly cloudy 10 - - - -
18/09:00pm 15.0 ESE 14 19 1019.1 R 6.6 - Cloudy 10 - - - -
18/08:30pm 15.0 ESE 15 21 1018.3 - 6.6 - Partly cloudy 10 - - - -
18/08:00pm 14.9 ESE 15 21 1017.8 - 6.6 - Mostly clear 10 - - - -
18/07:30pm 15.0 ESE 17 24 1017.1 - 6.6 - Partly cloudy 10 - - - -
18/07:00pm 15.0 ESE 17 24 1016.7 - 6.6 - Mostly clear 10 - - - -
18/06:30pm 14.9 ESE 17 23 1016.9 - 6.6 - Mostly clear 10 - - - -
18/06:11pm 15.1 SE 17 27 1016.5 - 6.6 - Mostly clear 10 - - - -
18/06:00pm 15.1 SE 18 25 1016.3 R 6.6 Fine Mostly cloudy 25 - - - -
18/05:30pm 15.0 SE 21 30 1015.1 - 6.6 - Mostly clear 10 - - - -
18/05:13pm 15.1 SE 20 30 1014.8 - 6.6 - Mostly clear 10 - - - -
18/05:00pm 15.0 SE 23 31 1014.9 - 6.6 - Mostly clear 10 - - - -
18/04:40pm 14.9 SE 20 32 1015.6 - 6.6 - Mostly clear 10 - - - -
18/04:30pm 14.8 SE 24 29 1014.9 - 6.6 - Mostly clear 10 - - - -
18/04:00pm 14.7 SSE 25 35 1014.2 - 6.6 - Mostly clear 10 - - - -
18/03:30pm 14.9 SSE 27 36 1013.7 - 6.6 - Mostly clear 10 - - - -
18/03:00pm 14.8 SSE 26 37 1012.9 R 6.6 Haze Mostly cloudy 2 - - - -
18/02:43pm 14.6 SSE 29 43 1012.0 - 6.6 - Partly cloudy 10 - - - -
18/02:30pm 14.4 SSE 29 44 1012.6 - 6.6 - Mostly clear 10 - - - -
18/02:00pm 14.3 SSE 29 41 1011.7 - 6.6 - Partly cloudy 9 - - - -
18/01:30pm 14.7 S 23 37 1011.4 - 6.4 Showers Partly cloudy 4 - - - -
18/01:00pm 16.3 SSE 18 24 1011.3 - 5.2 - Partly cloudy 3 - - - -
18/12:38pm 16.7 SE 16 22 1010.9 - 0.6 Thunder Cloudy 7 - - - -
18/12:30pm 16.9 SE 17 23 1010.5 - 0.2 - Cloudy 10 - - - -
18/12:00pm 17.9 SE 14 19 1010.7 F 0.2 Distant precip. Cloudy 17 - - - -
18/11:30am 17.3 ESE 11 15 1011.9 - 0.2 - Partly cloudy 10 - - - -
18/11:00am 17.0 ESE 13 18 1011.8 - 0.2 - Mostly clear 10 - - - -
18/10:30am 17.0 ESE 11 15 1012.7 - 0.2 - Partly cloudy 10 - - - -
18/10:00am 16.3 E 7 11 1014.0 - 0.0 - Partly cloudy 10 - - - -
18/09:43am 16.4 E 8 13 1013.8 - 0.0 - Partly cloudy 10 - - - -
18/09:30am 16.4 E 9 13 1013.8 - 0.0 - Mostly clear 10 - - - -
18/09:00am 15.6 E 9 15 1014.1 F 7.0 Rain Cloudy 10 - - - -
18/08:30am 15.4 E 11 16 1014.4 - 7.0 Rain Partly cloudy 8 - - - -
18/08:00am 15.1 E 9 14 1015.0 - 6.0 - Mostly clear 6 - - - -
18/07:52am 15.2 E 7 12 1015.2 - 5.4 Rain Partly cloudy 7 - - - -
18/07:30am 15.3 E 8 12 1015.6 - 5.4 Rain Partly cloudy 10 - - - -
18/07:00am 15.3 ESE 12 17 1015.4 - 5.4 - Partly cloudy 10 - - - -
18/06:30am 15.1 ESE 10 14 1015.6 - 5.4 Rain Mostly clear 10 - - - -
18/06:00am 14.9 ESE 12 16 1014.5 F 5.2 Rain Cloudy 15 - - - -
18/05:30am 14.3 ESE 7 9 1015.0 - 5.2 - Cloudy 10 - - - -
18/05:00am 14.0 E 4 5 1015.5 - 5.0 - Cloudy 10 - - - -
18/04:30am 13.7 ENE 4 7 1015.4 - 4.8 - Cloudy 10 - - - -
18/04:00am 13.5 NE 6 8 1015.5 - 4.8 - Partly cloudy 10 - - - -
18/03:52am 13.4 ENE 5 8 1015.4 - 4.8 - Partly cloudy 10 - - - -
18/03:30am 13.5 NE 6 7 1015.6 - 4.4 - Partly cloudy 5 - - - -
18/03:00am 13.4 N 2 5 1015.6 R 2.2 Rain Cloudy 6 - - - -
18/02:30am 13.3 W 5 8 1016.3 - 0.8 - Partly cloudy 5 - - - -
18/02:23am 13.4 NW 3 6 1015.8 - 0.4 - Partly cloudy 7 - - - -
18/02:00am 13.5 N 5 7 1015.4 - 0.0 - Partly cloudy 10 - - - -

Other Formats:

Comma delimited format used in spreadsheet applications
http://www.bom.gov.au/fwo/IDW60701/IDW60701.94638.axf

JavaScript Object Notation format (JSON) in row-major order
http://www.bom.gov.au/fwo/IDW60701/IDW60701.94638.json